Mc Guire Air Force Base Wrightstown US
ICAO: KWRI
IATA: WRI
Category: Medium
Scheduled Services: No

Elevation: 131 ft
TransAlt. 18000 ft.

Airport Communications:
APP/DEP:124.15
ATIS:110.6
CLNC DEL:135.2
GND:121.8
FT DIX RNG:34
ARMY OPS:41.35
PMSV METRO:23.98
COMD POST:31.94
PTD:134.1
TWR:118.65

KWRI Zoom In..

If you have problems with the map follow the link
https://www.worldairports.se/pages/airport.php?
ICAO=KWRI

Runways:

(A) RW 06 length 10014 ft width 150 ft
ILS 110.10 / hdg 58

(B) RW 18 length 7126 ft width 150 ft
---- / hdg 185

(C) RW 24 length 10014 ft width 150 ft
ILS 110.10 / hdg 238

(D) RW 36 length 7126 ft width 150 ft
---- / hdg 5

Location; KWRI
Day. 14 / Time. 14.56 Zulu
* Altimeter: 29.42
* Temperature: 11° c. 51.8°f.
* Wind from: 000° Speed 00 kn.
Dewpoint: 11° c.
Visibility: 9 Statute Miles.
Clouds: Overcast 200 ft.

KWRI 141456Z AUTO 00000KT 9SM OVC002 11/11 A2942 RMK AO2 SLP962 60002 T01120112 57026


Wind - Calm.

 
 
jpsmedia worldairports.se 2019   terms of use